sensor_id;sensor_type;location;lat;lon;timestamp;P1;durP1;ratioP1;P2;durP2;ratioP2
1679;SDS011;838;51.794;12.258;2022-09-01T00:00:07;5.33;;;1.47;;
1679;SDS011;838;51.794;12.258;2022-09-01T00:02:37;6.80;;;1.30;;
1679;SDS011;838;51.794;12.258;2022-09-01T00:05:03;2.70;;;1.20;;
1679;SDS011;838;51.794;12.258;2022-09-01T00:07:32;2.30;;;1.00;;
1679;SDS011;838;51.794;12.258;2022-09-01T00:09:59;3.53;;;1.40;;
1679;SDS011;838;51.794;12.258;2022-09-01T00:12:26;4.57;;;1.70;;
1679;SDS011;838;51.794;12.258;2022-09-01T00:14:53;2.80;;;1.50;;
1679;SDS011;838;51.794;12.258;2022-09-01T00:17:19;3.47;;;1.30;;
1679;SDS011;838;51.794;12.258;2022-09-01T00:19:45;7.13;;;1.30;;
1679;SDS011;838;51.794;12.258;2022-09-01T00:22:10;2.30;;;1.10;;
1679;SDS011;838;51.794;12.258;2022-09-01T00:24:36;3.10;;;1.30;;
1679;SDS011;838;51.794;12.258;2022-09-01T00:27:02;4.10;;;1.10;;
1679;SDS011;838;51.794;12.258;2022-09-01T00:29:28;6.03;;;1.30;;
1679;SDS011;838;51.794;12.258;2022-09-01T00:31:55;3.33;;;1.50;;
1679;SDS011;838;51.794;12.258;2022-09-01T00:34:20;3.63;;;1.23;;
1679;SDS011;838;51.794;12.258;2022-09-01T00:36:47;2.60;;;1.30;;
1679;SDS011;838;51.794;12.258;2022-09-01T00:39:13;3.00;;;1.20;;
1679;SDS011;838;51.794;12.258;2022-09-01T00:41:39;3.63;;;1.23;;
1679;SDS011;838;51.794;12.258;2022-09-01T00:44:08;2.93;;;1.53;;
1679;SDS011;838;51.794;12.258;2022-09-01T00:46:38;5.43;;;1.53;;
1679;SDS011;838;51.794;12.258;2022-09-01T00:49:11;2.97;;;1.50;;
1679;SDS011;838;51.794;12.258;2022-09-01T00:51:41;2.53;;;1.17;;
1679;SDS011;838;51.794;12.258;2022-09-01T00:54:10;2.27;;;1.10;;
1679;SDS011;838;51.794;12.258;2022-09-01T00:56:40;3.80;;;1.20;;
1679;SDS011;838;51.794;12.258;2022-09-01T00:59:06;3.63;;;1.20;;
1679;SDS011;838;51.794;12.258;2022-09-01T01:01:35;2.60;;;1.33;;
1679;SDS011;838;51.794;12.258;2022-09-01T01:04:02;2.80;;;1.40;;
1679;SDS011;838;51.794;12.258;2022-09-01T01:06:39;2.57;;;1.20;;
1679;SDS011;838;51.794;12.258;2022-09-01T01:09:14;3.73;;;1.50;;
1679;SDS011;838;51.794;12.258;2022-09-01T01:11:44;4.30;;;1.40;;
1679;SDS011;838;51.794;12.258;2022-09-01T01:14:12;2.90;;;1.47;;
1679;SDS011;838;51.794;12.258;2022-09-01T01:16:45;3.27;;;1.40;;
1679;SDS011;838;51.794;12.258;2022-09-01T01:22:06;4.00;;;1.47;;
1679;SDS011;838;51.794;12.258;2022-09-01T01:24:56;3.90;;;1.20;;
1679;SDS011;838;51.794;12.258;2022-09-01T01:27:22;4.13;;;1.60;;
1679;SDS011;838;51.794;12.258;2022-09-01T01:29:48;4.33;;;1.30;;
1679;SDS011;838;51.794;12.258;2022-09-01T01:32:17;3.10;;;1.30;;
1679;SDS011;838;51.794;12.258;2022-09-01T01:34:43;2.80;;;1.47;;
1679;SDS011;838;51.794;12.258;2022-09-01T01:37:11;5.50;;;1.57;;
1679;SDS011;838;51.794;12.258;2022-09-01T01:39:41;4.13;;;1.47;;
1679;SDS011;838;51.794;12.258;2022-09-01T01:42:08;2.60;;;1.23;;
1679;SDS011;838;51.794;12.258;2022-09-01T01:44:42;3.30;;;1.40;;
1679;SDS011;838;51.794;12.258;2022-09-01T01:47:11;4.37;;;1.33;;
1679;SDS011;838;51.794;12.258;2022-09-01T01:49:38;3.03;;;1.40;;
1679;SDS011;838;51.794;12.258;2022-09-01T01:52:08;2.23;;;1.17;;
1679;SDS011;838;51.794;12.258;2022-09-01T01:54:42;2.50;;;1.20;;
1679;SDS011;838;51.794;12.258;2022-09-01T01:57:10;4.63;;;1.30;;
1679;SDS011;838;51.794;12.258;2022-09-01T01:59:43;2.70;;;1.20;;
1679;SDS011;838;51.794;12.258;2022-09-01T02:02:09;2.90;;;1.40;;
1679;SDS011;838;51.794;12.258;2022-09-01T02:04:36;3.37;;;1.40;;
1679;SDS011;838;51.794;12.258;2022-09-01T02:07:07;2.50;;;1.10;;
1679;SDS011;838;51.794;12.258;2022-09-01T02:09:36;4.60;;;1.40;;
1679;SDS011;838;51.794;12.258;2022-09-01T02:12:04;2.70;;;1.23;;
1679;SDS011;838;51.794;12.258;2022-09-01T02:14:32;3.23;;;1.37;;
1679;SDS011;838;51.794;12.258;2022-09-01T02:16:58;4.30;;;1.20;;
1679;SDS011;838;51.794;12.258;2022-09-01T02:19:30;3.07;;;1.40;;
1679;SDS011;838;51.794;12.258;2022-09-01T02:21:55;4.33;;;1.20;;
1679;SDS011;838;51.794;12.258;2022-09-01T02:24:24;2.70;;;1.40;;
1679;SDS011;838;51.794;12.258;2022-09-01T02:26:50;4.20;;;1.37;;
1679;SDS011;838;51.794;12.258;2022-09-01T02:29:18;3.07;;;1.20;;
1679;SDS011;838;51.794;12.258;2022-09-01T02:31:47;2.30;;;1.20;;
1679;SDS011;838;51.794;12.258;2022-09-01T02:34:16;2.57;;;1.00;;
1679;SDS011;838;51.794;12.258;2022-09-01T02:36:44;3.70;;;1.30;;
1679;SDS011;838;51.794;12.258;2022-09-01T02:39:16;2.47;;;1.43;;
1679;SDS011;838;51.794;12.258;2022-09-01T02:41:44;3.30;;;1.27;;
1679;SDS011;838;51.794;12.258;2022-09-01T02:44:10;4.07;;;1.50;;
1679;SDS011;838;51.794;12.258;2022-09-01T02:46:40;4.27;;;1.67;;
1679;SDS011;838;51.794;12.258;2022-09-01T02:49:11;2.30;;;1.10;;
1679;SDS011;838;51.794;12.258;2022-09-01T02:51:42;2.70;;;1.70;;
1679;SDS011;838;51.794;12.258;2022-09-01T02:54:10;3.33;;;1.60;;
1679;SDS011;838;51.794;12.258;2022-09-01T02:56:44;3.00;;;1.30;;
1679;SDS011;838;51.794;12.258;2022-09-01T02:59:17;3.90;;;1.37;;
1679;SDS011;838;51.794;12.258;2022-09-01T03:01:46;2.87;;;1.40;;
1679;SDS011;838;51.794;12.258;2022-09-01T03:04:16;2.90;;;1.30;;
1679;SDS011;838;51.794;12.258;2022-09-01T03:06:42;2.57;;;1.20;;
1679;SDS011;838;51.794;12.258;2022-09-01T03:09:10;4.70;;;0.93;;
1679;SDS011;838;51.794;12.258;2022-09-01T03:11:39;2.70;;;1.30;;
1679;SDS011;838;51.794;12.258;2022-09-01T03:14:08;3.70;;;1.30;;
1679;SDS011;838;51.794;12.258;2022-09-01T03:16:34;2.60;;;1.10;;
1679;SDS011;838;51.794;12.258;2022-09-01T03:19:02;4.00;;;1.10;;
1679;SDS011;838;51.794;12.258;2022-09-01T03:21:31;3.47;;;1.40;;
1679;SDS011;838;51.794;12.258;2022-09-01T03:23:57;4.37;;;1.50;;
1679;SDS011;838;51.794;12.258;2022-09-01T03:26:26;2.53;;;1.30;;
1679;SDS011;838;51.794;12.258;2022-09-01T03:28:51;4.20;;;1.57;;
1679;SDS011;838;51.794;12.258;2022-09-01T03:31:17;4.10;;;1.30;;
1679;SDS011;838;51.794;12.258;2022-09-01T03:33:44;2.50;;;1.30;;
1679;SDS011;838;51.794;12.258;2022-09-01T03:36:10;3.37;;;1.17;;
1679;SDS011;838;51.794;12.258;2022-09-01T03:38:47;2.53;;;1.33;;
1679;SDS011;838;51.794;12.258;2022-09-01T03:41:15;3.97;;;1.30;;
1679;SDS011;838;51.794;12.258;2022-09-01T03:43:43;2.90;;;1.30;;
1679;SDS011;838;51.794;12.258;2022-09-01T03:46:11;4.17;;;1.30;;
1679;SDS011;838;51.794;12.258;2022-09-01T03:48:44;3.07;;;1.43;;
1679;SDS011;838;51.794;12.258;2022-09-01T03:51:12;3.67;;;1.40;;
1679;SDS011;838;51.794;12.258;2022-09-01T03:53:38;7.00;;;1.53;;
1679;SDS011;838;51.794;12.258;2022-09-01T03:56:04;3.37;;;1.30;;
1679;SDS011;838;51.794;12.258;2022-09-01T03:58:31;4.90;;;1.40;;
1679;SDS011;838;51.794;12.258;2022-09-01T04:01:00;2.50;;;1.33;;
1679;SDS011;838;51.794;12.258;2022-09-01T04:03:28;6.67;;;1.77;;
1679;SDS011;838;51.794;12.258;2022-09-01T04:05:56;3.40;;;1.47;;
1679;SDS011;838;51.794;12.258;2022-09-01T04:08:23;3.50;;;1.53;;
1679;SDS011;838;51.794;12.258;2022-09-01T04:10:55;3.23;;;1.37;;
1679;SDS011;838;51.794;12.258;2022-09-01T04:15:50;2.80;;;1.20;;
1679;SDS011;838;51.794;12.258;2022-09-01T04:18:17;3.30;;;1.47;;
1679;SDS011;838;51.794;12.258;2022-09-01T04:20:50;4.40;;;1.50;;
1679;SDS011;838;51.794;12.258;2022-09-01T04:26:02;3.40;;;1.30;;
1679;SDS011;838;51.794;12.258;2022-09-01T04:28:34;4.37;;;1.47;;
1679;SDS011;838;51.794;12.258;2022-09-01T04:31:03;5.33;;;1.37;;
1679;SDS011;838;51.794;12.258;2022-09-01T04:33:33;3.00;;;1.50;;
1679;SDS011;838;51.794;12.258;2022-09-01T04:36:26;3.80;;;1.40;;
1679;SDS011;838;51.794;12.258;2022-09-01T04:39:02;2.37;;;1.13;;
1679;SDS011;838;51.794;12.258;2022-09-01T04:41:34;4.33;;;1.40;;
1679;SDS011;838;51.794;12.258;2022-09-01T04:44:02;4.10;;;1.60;;
1679;SDS011;838;51.794;12.258;2022-09-01T04:46:31;3.63;;;1.40;;
1679;SDS011;838;51.794;12.258;2022-09-01T04:49:01;5.30;;;1.27;;
1679;SDS011;838;51.794;12.258;2022-09-01T04:51:32;2.93;;;1.10;;
1679;SDS011;838;51.794;12.258;2022-09-01T04:54:00;3.50;;;1.30;;
1679;SDS011;838;51.794;12.258;2022-09-01T04:56:28;4.37;;;1.20;;
1679;SDS011;838;51.794;12.258;2022-09-01T04:58:54;2.83;;;1.20;;
1679;SDS011;838;51.794;12.258;2022-09-01T05:01:21;3.17;;;1.13;;
1679;SDS011;838;51.794;12.258;2022-09-01T05:03:49;3.00;;;1.20;;
1679;SDS011;838;51.794;12.258;2022-09-01T05:06:23;2.33;;;1.07;;
1679;SDS011;838;51.794;12.258;2022-09-01T05:08:49;4.47;;;1.33;;
1679;SDS011;838;51.794;12.258;2022-09-01T05:11:16;2.40;;;1.10;;
1679;SDS011;838;51.794;12.258;2022-09-01T05:13:46;2.70;;;1.20;;
1679;SDS011;838;51.794;12.258;2022-09-01T05:16:14;2.10;;;0.90;;
1679;SDS011;838;51.794;12.258;2022-09-01T05:18:46;3.23;;;1.00;;
1679;SDS011;838;51.794;12.258;2022-09-01T05:21:14;3.73;;;1.17;;
1679;SDS011;838;51.794;12.258;2022-09-01T05:23:42;4.87;;;1.53;;
1679;SDS011;838;51.794;12.258;2022-09-01T05:26:13;3.00;;;1.30;;
1679;SDS011;838;51.794;12.258;2022-09-01T05:28:46;3.23;;;1.30;;
1679;SDS011;838;51.794;12.258;2022-09-01T05:31:13;4.07;;;1.30;;
1679;SDS011;838;51.794;12.258;2022-09-01T05:33:43;2.97;;;1.23;;
1679;SDS011;838;51.794;12.258;2022-09-01T05:36:13;4.20;;;1.50;;
1679;SDS011;838;51.794;12.258;2022-09-01T05:38:45;3.00;;;1.07;;
1679;SDS011;838;51.794;12.258;2022-09-01T05:41:12;3.00;;;1.30;;
1679;SDS011;838;51.794;12.258;2022-09-01T05:43:42;3.03;;;1.10;;
1679;SDS011;838;51.794;12.258;2022-09-01T05:46:14;2.53;;;1.27;;
1679;SDS011;838;51.794;12.258;2022-09-01T05:48:42;3.43;;;1.07;;
1679;SDS011;838;51.794;12.258;2022-09-01T05:51:12;2.87;;;1.40;;
1679;SDS011;838;51.794;12.258;2022-09-01T05:53:42;2.77;;;1.20;;
1679;SDS011;838;51.794;12.258;2022-09-01T05:56:16;2.70;;;1.10;;
1679;SDS011;838;51.794;12.258;2022-09-01T05:58:44;3.67;;;1.40;;
1679;SDS011;838;51.794;12.258;2022-09-01T06:01:19;3.77;;;1.33;;
1679;SDS011;838;51.794;12.258;2022-09-01T06:03:55;2.93;;;1.00;;
1679;SDS011;838;51.794;12.258;2022-09-01T06:06:26;3.13;;;1.00;;
1679;SDS011;838;51.794;12.258;2022-09-01T06:09:02;2.30;;;0.70;;
1679;SDS011;838;51.794;12.258;2022-09-01T06:11:45;3.10;;;0.90;;
1679;SDS011;838;51.794;12.258;2022-09-01T06:14:20;2.20;;;0.80;;
1679;SDS011;838;51.794;12.258;2022-09-01T06:16:46;1.97;;;0.70;;
1679;SDS011;838;51.794;12.258;2022-09-01T06:19:12;3.43;;;0.87;;
1679;SDS011;838;51.794;12.258;2022-09-01T06:21:44;3.23;;;0.80;;
1679;SDS011;838;51.794;12.258;2022-09-01T06:24:14;3.60;;;0.97;;
1679;SDS011;838;51.794;12.258;2022-09-01T06:26:41;2.77;;;0.90;;
1679;SDS011;838;51.794;12.258;2022-09-01T06:29:39;3.33;;;0.80;;
1679;SDS011;838;51.794;12.258;2022-09-01T06:32:06;2.10;;;0.70;;
1679;SDS011;838;51.794;12.258;2022-09-01T06:34:40;4.30;;;0.80;;
1679;SDS011;838;51.794;12.258;2022-09-01T06:37:09;2.27;;;0.80;;
1679;SDS011;838;51.794;12.258;2022-09-01T06:39:37;3.00;;;1.27;;
1679;SDS011;838;51.794;12.258;2022-09-01T06:42:03;2.33;;;0.80;;
1679;SDS011;838;51.794;12.258;2022-09-01T06:44:30;2.13;;;0.80;;
1679;SDS011;838;51.794;12.258;2022-09-01T06:46:56;2.73;;;0.70;;
1679;SDS011;838;51.794;12.258;2022-09-01T06:49:27;2.20;;;0.90;;
1679;SDS011;838;51.794;12.258;2022-09-01T06:51:59;2.27;;;0.73;;
1679;SDS011;838;51.794;12.258;2022-09-01T06:54:29;5.10;;;1.00;;
1679;SDS011;838;51.794;12.258;2022-09-01T06:56:59;3.10;;;1.00;;
1679;SDS011;838;51.794;12.258;2022-09-01T06:59:28;2.57;;;1.20;;
1679;SDS011;838;51.794;12.258;2022-09-01T07:01:56;2.10;;;0.90;;
1679;SDS011;838;51.794;12.258;2022-09-01T07:04:28;3.07;;;0.90;;
1679;SDS011;838;51.794;12.258;2022-09-01T07:06:57;4.20;;;1.20;;
1679;SDS011;838;51.794;12.258;2022-09-01T07:09:23;2.40;;;0.87;;
1679;SDS011;838;51.794;12.258;2022-09-01T07:11:48;3.80;;;1.10;;
1679;SDS011;838;51.794;12.258;2022-09-01T07:14:17;1.80;;;0.63;;
1679;SDS011;838;51.794;12.258;2022-09-01T07:16:43;3.10;;;1.07;;
1679;SDS011;838;51.794;12.258;2022-09-01T07:19:11;2.37;;;0.97;;
1679;SDS011;838;51.794;12.258;2022-09-01T07:21:39;3.07;;;1.00;;
1679;SDS011;838;51.794;12.258;2022-09-01T07:24:07;2.30;;;0.90;;
1679;SDS011;838;51.794;12.258;2022-09-01T07:26:37;2.53;;;0.80;;
1679;SDS011;838;51.794;12.258;2022-09-01T07:29:07;2.70;;;0.90;;
1679;SDS011;838;51.794;12.258;2022-09-01T07:31:37;2.43;;;0.73;;
1679;SDS011;838;51.794;12.258;2022-09-01T07:34:07;2.10;;;0.80;;
1679;SDS011;838;51.794;12.258;2022-09-01T07:36:38;1.97;;;0.77;;
1679;SDS011;838;51.794;12.258;2022-09-01T07:39:06;2.70;;;0.80;;
1679;SDS011;838;51.794;12.258;2022-09-01T07:41:32;2.10;;;0.83;;
1679;SDS011;838;51.794;12.258;2022-09-01T07:43:59;2.20;;;1.00;;
1679;SDS011;838;51.794;12.258;2022-09-01T07:46:30;2.20;;;1.00;;
1679;SDS011;838;51.794;12.258;2022-09-01T07:48:57;2.77;;;1.20;;
1679;SDS011;838;51.794;12.258;2022-09-01T07:51:31;3.13;;;0.87;;
1679;SDS011;838;51.794;12.258;2022-09-01T07:53:57;2.53;;;0.90;;
1679;SDS011;838;51.794;12.258;2022-09-01T07:56:26;2.20;;;0.60;;
1679;SDS011;838;51.794;12.258;2022-09-01T07:58:54;2.20;;;0.97;;
1679;SDS011;838;51.794;12.258;2022-09-01T08:01:27;3.30;;;0.80;;
1679;SDS011;838;51.794;12.258;2022-09-01T08:04:02;3.00;;;0.87;;
1679;SDS011;838;51.794;12.258;2022-09-01T08:06:36;2.60;;;0.87;;
1679;SDS011;838;51.794;12.258;2022-09-01T08:09:08;2.20;;;0.83;;
1679;SDS011;838;51.794;12.258;2022-09-01T08:11:37;2.40;;;0.73;;
1679;SDS011;838;51.794;12.258;2022-09-01T08:14:19;2.67;;;0.80;;
1679;SDS011;838;51.794;12.258;2022-09-01T08:16:45;3.40;;;0.70;;
1679;SDS011;838;51.794;12.258;2022-09-01T08:19:14;2.00;;;0.63;;
1679;SDS011;838;51.794;12.258;2022-09-01T08:21:42;2.10;;;0.70;;
1679;SDS011;838;51.794;12.258;2022-09-01T08:24:08;2.00;;;0.80;;
1679;SDS011;838;51.794;12.258;2022-09-01T08:26:34;4.50;;;0.83;;
1679;SDS011;838;51.794;12.258;2022-09-01T08:29:00;2.10;;;0.63;;
1679;SDS011;838;51.794;12.258;2022-09-01T08:31:27;2.93;;;0.83;;
1679;SDS011;838;51.794;12.258;2022-09-01T08:33:52;1.83;;;0.53;;
1679;SDS011;838;51.794;12.258;2022-09-01T08:36:19;2.13;;;0.80;;
1679;SDS011;838;51.794;12.258;2022-09-01T08:38:45;2.17;;;0.80;;
1679;SDS011;838;51.794;12.258;2022-09-01T08:41:41;2.23;;;0.77;;
1679;SDS011;838;51.794;12.258;2022-09-01T08:47:07;3.20;;;1.00;;
1679;SDS011;838;51.794;12.258;2022-09-01T08:49:37;2.60;;;0.87;;
1679;SDS011;838;51.794;12.258;2022-09-01T08:58:02;1.93;;;0.50;;
1679;SDS011;838;51.794;12.258;2022-09-01T09:00:37;1.77;;;0.50;;
1679;SDS011;838;51.794;12.258;2022-09-01T09:17:30;1.50;;;0.30;;
1679;SDS011;838;51.794;12.258;2022-09-01T09:19:59;2.50;;;0.30;;
1679;SDS011;838;51.794;12.258;2022-09-01T09:22:29;2.03;;;0.57;;
1679;SDS011;838;51.794;12.258;2022-09-01T09:25:09;1.80;;;0.60;;
1679;SDS011;838;51.794;12.258;2022-09-01T09:27:39;1.50;;;0.30;;
1679;SDS011;838;51.794;12.258;2022-09-01T09:32:58;1.87;;;0.50;;
1679;SDS011;838;51.794;12.258;2022-09-01T09:35:42;1.70;;;0.50;;
1679;SDS011;838;51.794;12.258;2022-09-01T09:38:43;1.60;;;0.30;;
1679;SDS011;838;51.794;12.258;2022-09-01T09:44:42;1.50;;;0.30;;
1679;SDS011;838;51.794;12.258;2022-09-01T09:47:32;1.70;;;0.50;;
1679;SDS011;838;51.794;12.258;2022-09-01T09:52:39;1.53;;;0.40;;
1679;SDS011;838;51.794;12.258;2022-09-01T09:55:22;2.33;;;0.50;;
1679;SDS011;838;51.794;12.258;2022-09-01T09:57:52;1.70;;;0.40;;
1679;SDS011;838;51.794;12.258;2022-09-01T10:00:33;2.57;;;0.60;;
1679;SDS011;838;51.794;12.258;2022-09-01T10:03:00;1.57;;;0.47;;
1679;SDS011;838;51.794;12.258;2022-09-01T10:08:09;1.80;;;0.53;;
1679;SDS011;838;51.794;12.258;2022-09-01T10:13:12;2.00;;;0.70;;
1679;SDS011;838;51.794;12.258;2022-09-01T10:15:55;2.77;;;0.60;;
1679;SDS011;838;51.794;12.258;2022-09-01T10:18:30;2.10;;;0.60;;
1679;SDS011;838;51.794;12.258;2022-09-01T10:21:36;2.00;;;0.77;;
1679;SDS011;838;51.794;12.258;2022-09-01T10:24:04;1.80;;;0.60;;
1679;SDS011;838;51.794;12.258;2022-09-01T10:26:40;2.23;;;0.70;;
1679;SDS011;838;51.794;12.258;2022-09-01T10:32:07;2.00;;;0.83;;
1679;SDS011;838;51.794;12.258;2022-09-01T10:34:35;1.93;;;0.73;;
1679;SDS011;838;51.794;12.258;2022-09-01T10:37:05;2.00;;;0.50;;
1679;SDS011;838;51.794;12.258;2022-09-01T10:39:32;2.87;;;0.50;;
1679;SDS011;838;51.794;12.258;2022-09-01T10:41:58;1.87;;;0.70;;
1679;SDS011;838;51.794;12.258;2022-09-01T10:45:04;3.03;;;0.60;;
1679;SDS011;838;51.794;12.258;2022-09-01T10:47:35;1.40;;;0.40;;
1679;SDS011;838;51.794;12.258;2022-09-01T10:50:03;1.70;;;0.40;;
1679;SDS011;838;51.794;12.258;2022-09-01T10:55:17;3.37;;;0.70;;
1679;SDS011;838;51.794;12.258;2022-09-01T10:57:52;2.53;;;0.50;;
1679;SDS011;838;51.794;12.258;2022-09-01T11:08:38;1.90;;;0.60;;
1679;SDS011;838;51.794;12.258;2022-09-01T11:13:59;2.33;;;0.67;;
1679;SDS011;838;51.794;12.258;2022-09-01T11:16:31;2.00;;;0.60;;
1679;SDS011;838;51.794;12.258;2022-09-01T11:21:47;1.50;;;0.40;;
1679;SDS011;838;51.794;12.258;2022-09-01T11:27:13;2.10;;;0.67;;
1679;SDS011;838;51.794;12.258;2022-09-01T11:30:15;2.67;;;0.40;;
1679;SDS011;838;51.794;12.258;2022-09-01T11:32:42;1.70;;;0.53;;
1679;SDS011;838;51.794;12.258;2022-09-01T11:35:18;1.73;;;0.53;;
1679;SDS011;838;51.794;12.258;2022-09-01T11:37:54;3.13;;;0.57;;
1679;SDS011;838;51.794;12.258;2022-09-01T11:40:26;1.70;;;0.43;;
1679;SDS011;838;51.794;12.258;2022-09-01T11:42:56;1.80;;;0.50;;
1679;SDS011;838;51.794;12.258;2022-09-01T11:45:28;1.70;;;0.40;;
1679;SDS011;838;51.794;12.258;2022-09-01T11:47:59;2.23;;;0.60;;
1679;SDS011;838;51.794;12.258;2022-09-01T11:50:38;1.60;;;0.53;;
1679;SDS011;838;51.794;12.258;2022-09-01T11:53:09;1.70;;;0.60;;
1679;SDS011;838;51.794;12.258;2022-09-01T11:55:44;1.53;;;0.40;;
1679;SDS011;838;51.794;12.258;2022-09-01T12:01:20;1.80;;;0.60;;
1679;SDS011;838;51.794;12.258;2022-09-01T12:06:56;1.67;;;0.63;;
1679;SDS011;838;51.794;12.258;2022-09-01T12:09:34;2.10;;;0.47;;
1679;SDS011;838;51.794;12.258;2022-09-01T12:12:07;2.00;;;0.60;;
1679;SDS011;838;51.794;12.258;2022-09-01T12:15:03;1.73;;;0.60;;
1679;SDS011;838;51.794;12.258;2022-09-01T12:17:33;1.73;;;0.50;;
1679;SDS011;838;51.794;12.258;2022-09-01T12:20:18;1.73;;;0.50;;
1679;SDS011;838;51.794;12.258;2022-09-01T12:25:30;1.67;;;0.50;;
1679;SDS011;838;51.794;12.258;2022-09-01T12:27:59;1.97;;;0.43;;
1679;SDS011;838;51.794;12.258;2022-09-01T12:30:26;1.60;;;0.40;;
1679;SDS011;838;51.794;12.258;2022-09-01T12:32:53;1.73;;;0.40;;
1679;SDS011;838;51.794;12.258;2022-09-01T12:35:24;2.47;;;0.50;;
1679;SDS011;838;51.794;12.258;2022-09-01T12:37:51;1.80;;;0.57;;
1679;SDS011;838;51.794;12.258;2022-09-01T12:40:37;1.60;;;0.40;;
1679;SDS011;838;51.794;12.258;2022-09-01T12:43:09;1.70;;;0.50;;
1679;SDS011;838;51.794;12.258;2022-09-01T12:45:40;2.27;;;0.50;;
1679;SDS011;838;51.794;12.258;2022-09-01T12:48:28;1.70;;;0.50;;
1679;SDS011;838;51.794;12.258;2022-09-01T12:53:56;2.13;;;0.80;;
1679;SDS011;838;51.794;12.258;2022-09-01T12:56:29;1.70;;;0.50;;
1679;SDS011;838;51.794;12.258;2022-09-01T12:59:13;1.70;;;0.40;;
1679;SDS011;838;51.794;12.258;2022-09-01T13:01:45;1.90;;;0.50;;
1679;SDS011;838;51.794;12.258;2022-09-01T13:04:13;1.97;;;0.50;;
1679;SDS011;838;51.794;12.258;2022-09-01T13:07:08;1.70;;;0.60;;
1679;SDS011;838;51.794;12.258;2022-09-01T13:09:33;1.60;;;0.50;;
1679;SDS011;838;51.794;12.258;2022-09-01T13:12:16;1.90;;;0.60;;
1679;SDS011;838;51.794;12.258;2022-09-01T13:14:44;2.10;;;1.07;;
1679;SDS011;838;51.794;12.258;2022-09-01T13:17:10;2.47;;;0.60;;
1679;SDS011;838;51.794;12.258;2022-09-01T13:19:36;1.70;;;0.63;;
1679;SDS011;838;51.794;12.258;2022-09-01T13:22:05;1.70;;;0.43;;
1679;SDS011;838;51.794;12.258;2022-09-01T13:24:34;1.60;;;0.50;;
1679;SDS011;838;51.794;12.258;2022-09-01T13:27:00;2.60;;;0.60;;
1679;SDS011;838;51.794;12.258;2022-09-01T13:29:28;1.83;;;0.50;;
1679;SDS011;838;51.794;12.258;2022-09-01T13:31:54;1.90;;;0.73;;
1679;SDS011;838;51.794;12.258;2022-09-01T13:34:21;1.60;;;0.40;;
1679;SDS011;838;51.794;12.258;2022-09-01T13:36:51;2.90;;;0.70;;
1679;SDS011;838;51.794;12.258;2022-09-01T13:39:18;1.60;;;0.57;;
1679;SDS011;838;51.794;12.258;2022-09-01T13:41:45;1.50;;;0.50;;
1679;SDS011;838;51.794;12.258;2022-09-01T13:44:11;2.20;;;0.40;;
1679;SDS011;838;51.794;12.258;2022-09-01T13:46:44;2.10;;;0.80;;
1679;SDS011;838;51.794;12.258;2022-09-01T13:49:10;1.50;;;0.43;;
1679;SDS011;838;51.794;12.258;2022-09-01T13:51:36;2.00;;;0.60;;
1679;SDS011;838;51.794;12.258;2022-09-01T13:54:03;1.80;;;0.40;;
1679;SDS011;838;51.794;12.258;2022-09-01T13:56:29;1.63;;;0.50;;
1679;SDS011;838;51.794;12.258;2022-09-01T13:58:54;2.80;;;0.67;;
1679;SDS011;838;51.794;12.258;2022-09-01T14:01:20;4.00;;;0.60;;
1679;SDS011;838;51.794;12.258;2022-09-01T14:03:49;2.57;;;0.47;;
1679;SDS011;838;51.794;12.258;2022-09-01T14:06:16;1.93;;;0.80;;
1679;SDS011;838;51.794;12.258;2022-09-01T14:08:41;1.93;;;0.47;;
1679;SDS011;838;51.794;12.258;2022-09-01T14:11:07;1.60;;;0.40;;
1679;SDS011;838;51.794;12.258;2022-09-01T14:13:39;1.60;;;0.50;;
1679;SDS011;838;51.794;12.258;2022-09-01T14:16:09;2.57;;;0.70;;
1679;SDS011;838;51.794;12.258;2022-09-01T14:18:36;3.40;;;0.60;;
1679;SDS011;838;51.794;12.258;2022-09-01T14:21:02;1.63;;;0.60;;
1679;SDS011;838;51.794;12.258;2022-09-01T14:23:28;2.03;;;0.50;;
1679;SDS011;838;51.794;12.258;2022-09-01T14:25:54;1.97;;;0.90;;
1679;SDS011;838;51.794;12.258;2022-09-01T14:28:21;1.60;;;0.50;;
1679;SDS011;838;51.794;12.258;2022-09-01T14:30:48;2.63;;;0.70;;
1679;SDS011;838;51.794;12.258;2022-09-01T14:33:16;2.37;;;0.37;;
1679;SDS011;838;51.794;12.258;2022-09-01T14:35:46;2.83;;;0.67;;
1679;SDS011;838;51.794;12.258;2022-09-01T14:38:13;2.00;;;0.50;;
1679;SDS011;838;51.794;12.258;2022-09-01T14:40:39;3.70;;;0.57;;
1679;SDS011;838;51.794;12.258;2022-09-01T14:43:12;1.90;;;0.50;;
1679;SDS011;838;51.794;12.258;2022-09-01T14:45:39;1.83;;;0.50;;
1679;SDS011;838;51.794;12.258;2022-09-01T14:48:06;2.23;;;0.70;;
1679;SDS011;838;51.794;12.258;2022-09-01T14:50:33;2.20;;;0.40;;
1679;SDS011;838;51.794;12.258;2022-09-01T14:53:04;2.17;;;0.70;;
1679;SDS011;838;51.794;12.258;2022-09-01T14:55:30;2.40;;;0.70;;
1679;SDS011;838;51.794;12.258;2022-09-01T14:57:56;1.60;;;0.60;;
1679;SDS011;838;51.794;12.258;2022-09-01T15:00:24;2.00;;;0.60;;
1679;SDS011;838;51.794;12.258;2022-09-01T15:02:52;1.80;;;0.60;;
1679;SDS011;838;51.794;12.258;2022-09-01T15:05:21;1.70;;;0.50;;
1679;SDS011;838;51.794;12.258;2022-09-01T15:07:50;3.40;;;1.00;;
1679;SDS011;838;51.794;12.258;2022-09-01T15:10:18;1.73;;;0.70;;
1679;SDS011;838;51.794;12.258;2022-09-01T15:12:46;2.03;;;0.83;;
1679;SDS011;838;51.794;12.258;2022-09-01T15:15:16;1.97;;;0.50;;
1679;SDS011;838;51.794;12.258;2022-09-01T15:17:42;3.10;;;1.03;;
1679;SDS011;838;51.794;12.258;2022-09-01T15:20:11;2.10;;;0.60;;
1679;SDS011;838;51.794;12.258;2022-09-01T15:22:58;3.40;;;0.60;;
1679;SDS011;838;51.794;12.258;2022-09-01T15:25:25;3.27;;;0.90;;
1679;SDS011;838;51.794;12.258;2022-09-01T15:27:51;1.77;;;0.50;;
1679;SDS011;838;51.794;12.258;2022-09-01T15:30:17;1.83;;;0.50;;
1679;SDS011;838;51.794;12.258;2022-09-01T15:32:44;2.80;;;0.63;;
1679;SDS011;838;51.794;12.258;2022-09-01T15:35:13;3.93;;;0.70;;
1679;SDS011;838;51.794;12.258;2022-09-01T15:37:40;4.47;;;2.10;;
1679;SDS011;838;51.794;12.258;2022-09-01T15:40:07;3.80;;;0.70;;
1679;SDS011;838;51.794;12.258;2022-09-01T15:42:34;1.80;;;0.60;;
1679;SDS011;838;51.794;12.258;2022-09-01T15:45:02;2.10;;;0.70;;
1679;SDS011;838;51.794;12.258;2022-09-01T15:47:31;3.10;;;0.60;;
1679;SDS011;838;51.794;12.258;2022-09-01T15:49:57;3.20;;;0.67;;
1679;SDS011;838;51.794;12.258;2022-09-01T15:52:23;1.90;;;0.83;;
1679;SDS011;838;51.794;12.258;2022-09-01T15:54:49;2.70;;;0.60;;
1679;SDS011;838;51.794;12.258;2022-09-01T15:57:15;1.90;;;0.40;;
1679;SDS011;838;51.794;12.258;2022-09-01T15:59:42;2.23;;;0.60;;
1679;SDS011;838;51.794;12.258;2022-09-01T16:02:09;1.60;;;0.60;;
1679;SDS011;838;51.794;12.258;2022-09-01T16:04:36;2.47;;;0.60;;
1679;SDS011;838;51.794;12.258;2022-09-01T16:07:03;2.53;;;0.60;;
1679;SDS011;838;51.794;12.258;2022-09-01T16:09:29;1.60;;;0.50;;
1679;SDS011;838;51.794;12.258;2022-09-01T16:11:54;2.30;;;0.77;;
1679;SDS011;838;51.794;12.258;2022-09-01T16:14:20;4.40;;;0.57;;
1679;SDS011;838;51.794;12.258;2022-09-01T16:19:45;3.60;;;1.00;;
1679;SDS011;838;51.794;12.258;2022-09-01T16:24:42;2.60;;;0.70;;
1679;SDS011;838;51.794;12.258;2022-09-01T16:27:17;2.00;;;0.60;;
1679;SDS011;838;51.794;12.258;2022-09-01T16:29:54;2.30;;;0.50;;
1679;SDS011;838;51.794;12.258;2022-09-01T16:32:24;1.47;;;0.37;;
1679;SDS011;838;51.794;12.258;2022-09-01T16:34:51;1.57;;;0.50;;
1679;SDS011;838;51.794;12.258;2022-09-01T16:37:51;2.17;;;0.60;;
1679;SDS011;838;51.794;12.258;2022-09-01T16:51:30;2.03;;;0.60;;
1679;SDS011;838;51.794;12.258;2022-09-01T16:54:12;1.90;;;0.63;;
1679;SDS011;838;51.794;12.258;2022-09-01T16:56:48;1.70;;;0.60;;
1679;SDS011;838;51.794;12.258;2022-09-01T16:59:22;1.67;;;0.40;;
1679;SDS011;838;51.794;12.258;2022-09-01T17:04:46;2.50;;;0.60;;
1679;SDS011;838;51.794;12.258;2022-09-01T17:12:50;1.57;;;0.50;;
1679;SDS011;838;51.794;12.258;2022-09-01T17:15:30;1.80;;;0.53;;
1679;SDS011;838;51.794;12.258;2022-09-01T17:21:22;2.53;;;0.70;;